LiveATC.Net - Listen to live air traffic control over the Internet!

Find LiveATC Audio Streams


Airport/ARTCC Code

Frequency Search
(e.g., 124.400, 128.75)
Site-wide search
 


Browse LiveATC Feeds
Top 50 LiveATC Feeds
LiveATC Feed Map
Bad Weather Areas

LiveATC FAQ
Offer LiveATC feed
Contact LiveATC.net
Press Inquiries

LiveATC on iPhone
LiveATC on Android

Windows Phone
Windows 8/10

LiveATC Mobile
(Mobile browser)

ATC Audio Archives
Interesting Recordings

LiveATC Forums

Home Page
About LiveATC.net
Make a Donation
Terms of Use
Privacy Policy

Canadian Air Freqs

AIRMETs/SIGMETs

FAA Airport Status
Nat'l Airspace Status
Arrival Demand Charts


Server Software By:
Icecast.org
Liquidsoap

Select an area of interest:
U.S. Feeds: Class B Airports | Class C Airports | Class D/Other Airports | ARTCC (Centers)
International Feeds: Canada | Europe | Oceania | Asia | South America | North/Central America | Africa
Misc Feeds: HF Feeds
Search by ICAO/IATA airport code:   (e.g., kbos, kjfk, lax, eham, etc.)


Currently Available Live Feeds: 2446
Status Updated: Mon May 20 2019 01:30:01 UTC


NOTICE

Unauthorized use prohibited. See LiveATC.net Terms of Service

North and Central America Airport Feeds

 

MMAN Tower (Archives)
Monterrey, Mexico

Feed Status: UP
Listen in your browser - HTML5 player(in browser, HTML5)
Click here to listen with your own player(launches your MP3 player)

MMAN 200040Z 11011KT 6SM SKC 28/21 A2979 RMK HZY

MMAN Flight Activity (Flightaware)

Listeners: 0 out of 1002 total

Monterrey Tower: 118.600

MMCU Twr/App (Archives)
Chihuahua, Mexico

Feed Status: UP
Listen in your browser - HTML5 player(in browser, HTML5)
Click here to listen with your own player(launches your MP3 player)

MMCU 200047Z 10015KT 10SM FEW200 32/01 A2977 RMK 8/001

MMCU Flight Activity (Flightaware)

Listeners: 0 out of 1002 total

Chihuahua Approach: 121.000
Chihuahua Tower: 118.400

MMGL Twr/App (Archives)
Guadalajara, Mexico

Feed Status: UP
Listen in your browser - HTML5 player(in browser, HTML5)
Click here to listen with your own player(launches your MP3 player)

MMGL 200046Z 33010KT 10SM SKC 32/M08 A2999

MMGL Flight Activity (Flightaware)

Listeners: 1 out of 1002 total

Guadalajara Approach: 120.800
Guadalajara Tower: 118.100

MMHO App/Dep
Hermosillo, Mexico

Feed Status: DOWN
Offline since: 2019-05-20 01:29:02 UTC

MMHO 200040Z 22013KT 10SM FEW090 31/M02 A2978 RMK 8/030 ISOL CI HZY

Hermosillo Approach/Departure: 121.400

MMHO Tower
Hermosillo, Mexico

Feed Status: DOWN
Offline since: 2019-05-20 01:29:02 UTC

MMHO 200040Z 22013KT 10SM FEW090 31/M02 A2978 RMK 8/030 ISOL CI HZY

Hermosillo Tower: 118.700

MMLP Twr/App/Center (Archives)
La Paz, Mexico

Feed Status: UP
Listen in your browser - HTML5 player(in browser, HTML5)
Click here to listen with your own player(launches your MP3 player)

MMLP 200040Z 22012KT 10SM SKC 31/00 A2980

MMLP Flight Activity (Flightaware)

Listeners: 0 out of 1002 total

La Paz Approach: 120.600
La Paz Tower: 118.100
Mazatlan Center: 128.000
Mazatlan Center: 124.400
Mazatlan Center: 128.300
Mazatlan Center: 124.200
Mazatlan Center: 126.300
Mazatlan Center: 126.500
San Jose Approach: 120.900

Merida Center (West 123.75) (Archives)
Merida, Mexico

Feed Status: UP
Listen in your browser - HTML5 player(in browser, HTML5)
Click here to listen with your own player(launches your MP3 player)

MMID Flight Activity (Flightaware)

Listeners: 0 out of 1002 total

Merida Center (West): 123.750

Merida Center (West 125.8) (Archives)
Merida, Mexico

Feed Status: UP
Listen in your browser - HTML5 player(in browser, HTML5)
Click here to listen with your own player(launches your MP3 player)

MMID Flight Activity (Flightaware)

Listeners: 0 out of 1002 total

Merida Center (West): 125.800

MMMD Tower/Approach (Archives)
Merida, Mexico

Feed Status: UP
Listen in your browser - HTML5 player(in browser, HTML5)
Click here to listen with your own player(launches your MP3 player)

MMMD 200049Z 04006KT 7SM SCT020TCU 33/22 A2977 RMK 8/200 CB N

MMMD Flight Activity (Flightaware)

Listeners: 0 out of 1002 total

Merida Approach: 121.200
Merida Tower: 118.300

MMMM Tower (Archives)
Morelia, Mexico

Feed Status: UP
Listen in your browser - HTML5 player(in browser, HTML5)
Click here to listen with your own player(launches your MP3 player)

MMMM 200046Z 00000KT 7SM SKC 30/M03 A3005 RMK HZY

MMMM Flight Activity (Flightaware)

Listeners: 0 out of 1002 total

Morelia Tower: 118.500

MMMX Approach (Archives)
Mexico City, Mexico

Feed Status: UP
Listen in your browser - HTML5 player(in browser, HTML5)
Click here to listen with your own player(launches your MP3 player)

MMMX 192350Z 02009KT 9SM SCT020CB 28/M02 A3015 NOSIG RMK SLP017 57005 908 8/300 HZY ISOL AC

MMMX Flight Activity (Flightaware)

Listeners: 2 out of 1002 total

Mexico City Approach: 121.200

MMMX Twr/App (Archives)
Mexico City, Mexico

Feed Status: UP
Listen in your browser - HTML5 player(in browser, HTML5)
Click here to listen with your own player(launches your MP3 player)

MMMX 192350Z 02009KT 9SM SCT020CB 28/M02 A3015 NOSIG RMK SLP017 57005 908 8/300 HZY ISOL AC

MMMX Flight Activity (Flightaware)

Listeners: 14 out of 1002 total

Mexico City Approach: 121.200
Mexico City Final Approach: 119.750
Mexico City Helicopters: 118.150
Mexico City Terminal: 129.600
Mexico City Tower: 118.550

MMMY Tower/Approach (Archives)
Monterrey, Mexico

Feed Status: UP
Listen in your browser - HTML5 player(in browser, HTML5)
Click here to listen with your own player(launches your MP3 player)

MMMY 200040Z 11009KT 6SM SKC 30/23 A2975 RMK HZY

MMMY Flight Activity (Flightaware)

Listeners: 0 out of 1002 total

Monterrey Approach/Departure: 119.750
Monterrey Tower: 118.100

MMPC CTAF
Pachuca, Mexico

Feed Status: DOWN
Offline since: 2019-03-02 20:24:04 UTC

Pachuca CTAF/AFIS: 122.900

MMQT Tower/App (Archives)
Queretaro, Mexico

Feed Status: UP
Listen in your browser - HTML5 player(in browser, HTML5)
Click here to listen with your own player(launches your MP3 player)

MMQT 200040Z 22002KT 10SM SKC 29/M01 A3010

MMQT Flight Activity (Flightaware)

Listeners: 0 out of 1002 total

Queretaro Approach: 127.200
Queretaro Tower: 118.950

MMSP Gnd/Twr/App/Center (Archives)
San Luis Potosi, Mexico

Feed Status: UP
Listen in your browser - HTML5 player(in browser, HTML5)
Click here to listen with your own player(launches your MP3 player)

MMSP 200044Z 10010KT 10SM SKC 31/01 A3002 RMK HZY

MMSP Flight Activity (Flightaware)

Listeners: 0 out of 1002 total

AMX Ground Ops: 131.000
Mexico Center (North, Sector 6): 126.000
Mexico Center (Northwest, Sector 7): 123.900
Mexico Center (West, Sector 5): 125.100
Potosi Approach: 127.500
Potosi Tower: 118.900
TAO Ground Ops: 133.600

MMTC Twr/App/Center (Archives)
Torreon, Mexico

Feed Status: UP
Listen in your browser - HTML5 player(in browser, HTML5)
Click here to listen with your own player(launches your MP3 player)

MMTC 200044Z 05005KT 15SM SKC 36/M02 A2979

MMTC Flight Activity (Flightaware)

Listeners: 0 out of 1002 total

Mazatlan Center: 124.200
Mazatlan Center: 124.400
Mazatlan Center: 128.000
Mexico Center: 123.900
Monterrey Center: 125.600
Monterrey Center: 125.425
Monterrey Center: 127.400
Torreon Approach: 119.500
Torreon Tower: 118.500

MMTJ Approach (Archives)
Tijuana, Mexico

Feed Status: UP
Listen in your browser - HTML5 player(in browser, HTML5)
Click here to listen with your own player(launches your MP3 player)

MMTJ 200042Z 24012KT 7SM BKN020 BKN210 17/11 A2993 RMK 8/501 HZY

MMTJ Flight Activity (Flightaware)

Listeners: 2 out of 1002 total

Tijuana Approach: 120.300

MMTJ Twr/Ramp (Archives)
Tijuana, Mexico

Feed Status: UP
Listen in your browser - HTML5 player(in browser, HTML5)
Click here to listen with your own player(launches your MP3 player)

MMTJ 200042Z 24012KT 7SM BKN020 BKN210 17/11 A2993 RMK 8/501 HZY

MMTJ Flight Activity (Flightaware)

Listeners: 1 out of 1002 total

Tijuana Ramp: 126.100
Tijuana Tower: 118.100

MUFH Havana FIR (App/Center) (Archives)
Havana, Cuba

Feed Status: UP
Listen in your browser - HTML5 player(in browser, HTML5)
Click here to listen with your own player(launches your MP3 player)

MUFH Flight Activity (Flightaware)

Listeners: 0 out of 1002 total

Hava Approach: 120.300
Havana Center: 120.250
Havana Center: 123.700
Havana Center: 124.550
Havana Center: 133.700
Havana Center: 135.100

TBPB Gnd/Twr/Radar/Center (Archives)
Bridgetown, Barbados

Feed Status: UP
Listen in your browser - HTML5 player(in browser, HTML5)
Click here to listen with your own player(launches your MP3 player)

TBPB 200100Z 09013KT 9999 SCT018 27/22 Q1014 NOSIG

TBPB Flight Activity (Flightaware)

Listeners: 0 out of 1002 total

Adams Approach/Departure: 129.350
Adams Approach/Departure: 128.850
Adams Ground: 121.900
Adams Tower: 118.700
Piarco Center: 123.700

TXKF Tower/Ground (Archives)
Hamilton, Bermuda

Feed Status: UP
Listen in your browser - HTML5 player(in browser, HTML5)
Click here to listen with your own player(launches your MP3 player)

TXKF 200055Z 01004KT 9999 FEW013 BKN300 22/20 Q1022

TXKF Flight Activity (Flightaware)

Listeners: 0 out of 1002 total

Bermuda CTAF: 122.800
Bermuda Ground/Clearance: 124.500
Bermuda Tower: 118.100

ZNY Bermuda Sector (Archives)
Hamilton, Bermuda

Feed Status: UP
Listen in your browser - HTML5 player(in browser, HTML5)
Click here to listen with your own player(launches your MP3 player)

TXKF 200055Z 01004KT 9999 FEW013 BKN300 22/20 Q1022

TXKF Flight Activity (Flightaware)

Listeners: 1 out of 1002 total

New York Approach (Bermuda Sector) : 119.100
New York Center (Bermuda Sector): 128.500

MGGT Gnd/Twr (Archives)
Guatemala City, Guatemala

Feed Status: UP
Listen in your browser - HTML5 player(in browser, HTML5)
Click here to listen with your own player(launches your MP3 player)

MGGT 200100Z 16006KT 6000 -RA BKN014 FEW024CB 20/18 Q1022 A3018 BR CB NNE/E/SBR STN

MGGT Flight Activity (Flightaware)

Listeners: 0 out of 1002 total

Guatemala City Ground: 121.900
Guatemala City Tower: 118.100

MGGT Ground (Archives)
Guatemala City, Guatemala

Feed Status: UP
Listen in your browser - HTML5 player(in browser, HTML5)
Click here to listen with your own player(launches your MP3 player)

MGGT 200100Z 16006KT 6000 -RA BKN014 FEW024CB 20/18 Q1022 A3018 BR CB NNE/E/SBR STN

MGGT Flight Activity (Flightaware)

Listeners: 0 out of 1002 total

Guatemala City Ground: 121.900

MGGT Tower (Archives)
Guatemala City, Guatemala

Feed Status: UP
Listen in your browser - HTML5 player(in browser, HTML5)
Click here to listen with your own player(launches your MP3 player)

MGGT 200100Z 16006KT 6000 -RA BKN014 FEW024CB 20/18 Q1022 A3018 BR CB NNE/E/SBR STN

MGGT Flight Activity (Flightaware)

Listeners: 0 out of 1002 total

Guatemala City Tower: 118.100

MHLC Gnd/Twr/Center (Archives)
La Ceiba, Honduras

Feed Status: UP
Listen in your browser - HTML5 player(in browser, HTML5)
Click here to listen with your own player(launches your MP3 player)

MHLC 200100Z 12002KT 9999 FEW026CB BKN200 29/25 Q1008 A2977 RETS NOSIG

MHLC Flight Activity (Flightaware)

Listeners: 0 out of 1002 total

CENAMER: 123.900
CENAMER: 124.300
Goloson Ground: 121.900
Goloson Tower: 118.500
La Ceiba Radio: 128.900

MHRO Gnd/Twr/App/Center (Archives)
Roatan, Honduras

Feed Status: UP
Listen in your browser - HTML5 player(in browser, HTML5)
Click here to listen with your own player(launches your MP3 player)

MHRO 200100Z 09020KT 9999 FEW024 SCT220 29/24 Q1009 A2980 NOSIG

MHRO Flight Activity (Flightaware)

Listeners: 0 out of 1002 total

CENAMER (Center): 124.300
La Ceiba Radio: 128.900
Roatan Ground: 121.600
Roatan Tower: 118.100

MHTG ATIS (Archives)
Tegucigalpa, Honduras

Feed Status: UP
Listen in your browser - HTML5 player(in browser, HTML5)
Click here to listen with your own player(launches your MP3 player)

MHTG 200100Z 19006KT 9999 SCT028 BKN080 21/18 Q1015 A2997 RERA NOSIG

MHTG Flight Activity (Flightaware)

Listeners: 0 out of 1002 total

Toncontin ATIS: 127.750

MHTG Gnd/Twr/App/Ctr/Ops (Archives)
Tegucigalpa, Honduras

Feed Status: UP
Listen in your browser - HTML5 player(in browser, HTML5)
Click here to listen with your own player(launches your MP3 player)

MHTG 200100Z 19006KT 9999 SCT028 BKN080 21/18 Q1015 A2997 RERA NOSIG

MHTG Flight Activity (Flightaware)

Listeners: 0 out of 1002 total

American Airlines Ops: 130.700
ARINC ACARS: 131.550
Cenamer Center: 123.900
Cenamer Center: 124.300
Cenamer Center: 124.100
CMP Ops: 129.925
Continental Airlines Ops: 129.925
FAH Ground: 122.900
Taca Ops: 131.300
Taca Ops Sal: 130.300
Tecnologias Unidas: 133.000
Tegucigalpa RDO: 126.700
Toncontin Approach: 119.100
Toncontin Ground: 121.900
Toncontin Tower: 118.700

MROC Del/Gnd/Twr (Archives)
San Jose, Costa Rica

Feed Status: UP
Listen in your browser - HTML5 player(in browser, HTML5)
Click here to listen with your own player(launches your MP3 player)

MROC 200000Z 31004KT 9999 FEW010 21/20 A2997 NOSIG

MROC Flight Activity (Flightaware)

Listeners: 0 out of 1002 total

Coco Clearance Delivery/Ground: 121.900
Coco Tower: 118.600

MROC Del/Gnd/Twr/App/Center/Misc (Archives)
San Jose, Costa Rica

Feed Status: UP
Listen in your browser - HTML5 player(in browser, HTML5)
Click here to listen with your own player(launches your MP3 player)

MROC 200000Z 31004KT 9999 FEW010 21/20 A2997 NOSIG

MROC Flight Activity (Flightaware)

Listeners: 7 out of 1002 total

Central American Center (CENAMER Control): 124.100
Coco Center (Control over CR Airspace): 119.600
Coco Clearance Delivery: 121.300
Coco Ground: 121.900
Coco Terminal Control: 120.500
Coco Tower: 118.600
Coco UNICOM: 126.800
SYQ Ground: 121.700
SYQ Tower: 118.300

MSLP Gnd/Twr/App (Archives)
San Salvador, El Salvador

Feed Status: UP
Listen in your browser - HTML5 player(in browser, HTML5)
Click here to listen with your own player(launches your MP3 player)

MSLP 200050Z VRB01KT 9999 SCT023 FEW037CB 27/25 Q1009 A2979 NOSIG RMK CB LTG N NE

MSLP Flight Activity (Flightaware)

Listeners: 0 out of 1002 total

Comalapa Ground: 121.700
Comalapa Tower: 118.000
Compalapa Approach: 119.900